sensor_id;sensor_type;location;lat;lon;timestamp;pressure;altitude;pressure_sealevel;temperature;humidity
43707;BME280;61348;53.392;-6.248;2023-07-28T03:01:46;99527.53;;;15.84;81.21
43707;BME280;61348;53.392;-6.248;2023-07-28T03:04:13;99534.34;;;15.83;81.63
43707;BME280;61348;53.392;-6.248;2023-07-28T03:06:40;99533.13;;;15.84;81.90
43707;BME280;61348;53.392;-6.248;2023-07-28T03:09:06;99531.13;;;15.84;82.10
43707;BME280;61348;53.392;-6.248;2023-07-28T03:11:33;99532.31;;;15.87;82.22
43707;BME280;61348;53.392;-6.248;2023-07-28T03:14:00;99529.50;;;15.87;82.05
43707;BME280;61348;53.392;-6.248;2023-07-28T03:16:26;99529.13;;;15.85;82.40
43707;BME280;61348;53.392;-6.248;2023-07-28T03:18:53;99529.50;;;15.87;82.40
43707;BME280;61348;53.392;-6.248;2023-07-28T03:21:20;99527.53;;;15.84;82.47
43707;BME280;61348;53.392;-6.248;2023-07-28T03:23:47;99518.38;;;15.83;82.62
43707;BME280;61348;53.392;-6.248;2023-07-28T03:26:13;99527.97;;;15.79;82.54
43707;BME280;61348;53.392;-6.248;2023-07-28T03:28:40;99528.41;;;15.74;82.76
43707;BME280;61348;53.392;-6.248;2023-07-28T03:31:07;99519.66;;;15.72;82.82
43707;BME280;61348;53.392;-6.248;2023-07-28T03:33:34;99514.91;;;15.65;83.05
43707;BME280;61348;53.392;-6.248;2023-07-28T03:36:00;99511.38;;;15.61;82.98
43707;BME280;61348;53.392;-6.248;2023-07-28T03:38:27;99508.22;;;15.59;83.16
43707;BME280;61348;53.392;-6.248;2023-07-28T03:40:54;99507.78;;;15.57;83.18
43707;BME280;61348;53.392;-6.248;2023-07-28T03:43:21;99511.81;;;15.56;83.35
43707;BME280;61348;53.392;-6.248;2023-07-28T03:45:48;99500.66;;;15.56;83.27
43707;BME280;61348;53.392;-6.248;2023-07-28T03:48:15;99500.25;;;15.54;83.34
43707;BME280;61348;53.392;-6.248;2023-07-28T03:50:41;99510.22;;;15.52;83.38
43707;BME280;61348;53.392;-6.248;2023-07-28T03:53:08;99503.81;;;15.55;83.49
43707;BME280;61348;53.392;-6.248;2023-07-28T03:55:35;99506.25;;;15.53;83.55
43707;BME280;61348;53.392;-6.248;2023-07-28T03:58:02;99499.91;;;15.49;83.57
43707;BME280;61348;53.392;-6.248;2023-07-28T04:00:29;99501.47;;;15.46;83.75
43707;BME280;61348;53.392;-6.248;2023-07-28T04:02:56;99501.88;;;15.45;83.72
43707;BME280;61348;53.392;-6.248;2023-07-28T04:05:24;99494.31;;;15.42;83.83
43707;BME280;61348;53.392;-6.248;2023-07-28T04:07:51;99502.31;;;15.40;84.04
43707;BME280;61348;53.392;-6.248;2023-07-28T04:10:18;99507.88;;;15.40;84.21
43707;BME280;61348;53.392;-6.248;2023-07-28T04:12:44;99505.47;;;15.42;84.17
43707;BME280;61348;53.392;-6.248;2023-07-28T04:15:11;99514.25;;;15.40;84.35
43707;BME280;61348;53.392;-6.248;2023-07-28T04:17:38;99508.69;;;15.40;84.25
43707;BME280;61348;53.392;-6.248;2023-07-28T04:20:05;99513.44;;;15.43;84.21
43707;BME280;61348;53.392;-6.248;2023-07-28T04:22:32;99513.03;;;15.41;84.41
43707;BME280;61348;53.392;-6.248;2023-07-28T04:24:59;99509.50;;;15.41;84.36
43707;BME280;61348;53.392;-6.248;2023-07-28T04:27:27;99513.47;;;15.36;84.56
43707;BME280;61348;53.392;-6.248;2023-07-28T04:29:57;99514.69;;;15.35;84.65
43707;BME280;61348;53.392;-6.248;2023-07-28T04:32:25;99512.72;;;15.32;84.67
43707;BME280;61348;53.392;-6.248;2023-07-28T04:34:52;99517.91;;;15.27;84.69
43707;BME280;61348;53.392;-6.248;2023-07-28T04:37:20;99518.31;;;15.25;84.85
43707;BME280;61348;53.392;-6.248;2023-07-28T04:39:47;99522.72;;;15.22;84.70
43707;BME280;61348;53.392;-6.248;2023-07-28T04:42:13;99527.09;;;15.23;84.65
43707;BME280;61348;53.392;-6.248;2023-07-28T04:44:40;99524.69;;;15.25;84.62
43707;BME280;61348;53.392;-6.248;2023-07-28T04:47:07;99534.22;;;15.28;84.62
43707;BME280;61348;53.392;-6.248;2023-07-28T04:49:34;99538.63;;;15.29;84.58
43707;BME280;61348;53.392;-6.248;2023-07-28T04:52:00;99532.63;;;15.31;84.69
43707;BME280;61348;53.392;-6.248;2023-07-28T04:54:27;99531.00;;;15.33;84.75
43707;BME280;61348;53.392;-6.248;2023-07-28T04:56:54;99532.19;;;15.36;84.74
43707;BME280;61348;53.392;-6.248;2023-07-28T04:59:21;99540.97;;;15.38;84.63
43707;BME280;61348;53.392;-6.248;2023-07-28T05:01:47;99549.28;;;15.45;84.79
43707;BME280;61348;53.392;-6.248;2023-07-28T05:04:14;99546.09;;;15.50;84.86
43707;BME280;61348;53.392;-6.248;2023-07-28T05:06:41;99555.28;;;15.50;84.76
43707;BME280;61348;53.392;-6.248;2023-07-28T05:09:08;99552.47;;;15.54;84.83
43707;BME280;61348;53.392;-6.248;2023-07-28T05:11:35;99548.06;;;15.56;84.88
43707;BME280;61348;53.392;-6.248;2023-07-28T05:14:02;99547.66;;;15.58;84.81
43707;BME280;61348;53.392;-6.248;2023-07-28T05:16:32;99548.44;;;15.62;84.76
43707;BME280;61348;53.392;-6.248;2023-07-28T05:18:59;99548.81;;;15.64;84.75
43707;BME280;61348;53.392;-6.248;2023-07-28T05:21:26;99548.00;;;15.67;84.59
43707;BME280;61348;53.392;-6.248;2023-07-28T05:23:53;99549.97;;;15.70;84.45
43707;BME280;61348;53.392;-6.248;2023-07-28T05:26:19;99545.19;;;15.70;84.46
43707;BME280;61348;53.392;-6.248;2023-07-28T05:28:46;99541.56;;;15.73;84.49
43707;BME280;61348;53.392;-6.248;2023-07-28T05:31:13;99549.56;;;15.75;84.19
43707;BME280;61348;53.392;-6.248;2023-07-28T05:33:42;99546.75;;;15.75;84.14
43707;BME280;61348;53.392;-6.248;2023-07-28T05:36:08;99549.94;;;15.77;84.16
43707;BME280;61348;53.392;-6.248;2023-07-28T05:38:35;99550.31;;;15.79;83.86
43707;BME280;61348;53.392;-6.248;2023-07-28T05:41:03;99550.31;;;15.79;83.46
43707;BME280;61348;53.392;-6.248;2023-07-28T05:43:30;99553.53;;;15.77;83.42
43707;BME280;61348;53.392;-6.248;2023-07-28T05:45:59;99553.91;;;15.76;83.26
43707;BME280;61348;53.392;-6.248;2023-07-28T05:48:26;99557.50;;;15.73;82.87
43707;BME280;61348;53.392;-6.248;2023-07-28T05:50:53;99547.59;;;15.65;82.71
43707;BME280;61348;53.392;-6.248;2023-07-28T05:53:20;99547.25;;;15.59;82.72
43707;BME280;61348;53.392;-6.248;2023-07-28T05:55:48;99547.28;;;15.56;82.76
43707;BME280;61348;53.392;-6.248;2023-07-28T05:58:15;99550.44;;;15.58;83.04
43707;BME280;61348;53.392;-6.248;2023-07-28T06:00:42;99548.44;;;15.58;83.15
43707;BME280;61348;53.392;-6.248;2023-07-28T06:03:11;99539.66;;;15.60;83.36
43707;BME280;61348;53.392;-6.248;2023-07-28T06:05:39;99544.06;;;15.61;83.38
43707;BME280;61348;53.392;-6.248;2023-07-28T06:08:09;99548.44;;;15.62;83.36
43707;BME280;61348;53.392;-6.248;2023-07-28T06:10:37;99543.25;;;15.64;83.37
43707;BME280;61348;53.392;-6.248;2023-07-28T06:13:03;99549.19;;;15.66;83.41
43707;BME280;61348;53.392;-6.248;2023-07-28T06:15:30;99553.59;;;15.67;83.42
43707;BME280;61348;53.392;-6.248;2023-07-28T06:17:57;99544.00;;;15.68;83.55
43707;BME280;61348;53.392;-6.248;2023-07-28T06:20:24;99544.78;;;15.68;83.56
43707;BME280;61348;53.392;-6.248;2023-07-28T06:22:51;99549.13;;;15.73;83.58
43707;BME280;61348;53.392;-6.248;2023-07-28T06:25:18;99542.38;;;15.74;83.42
43707;BME280;61348;53.392;-6.248;2023-07-28T06:27:44;99546.34;;;15.73;83.14
43707;BME280;61348;53.392;-6.248;2023-07-28T06:30:11;99546.75;;;15.75;82.85
43707;BME280;61348;53.392;-6.248;2023-07-28T06:32:38;99553.53;;;15.74;83.03
43707;BME280;61348;53.392;-6.248;2023-07-28T06:35:08;99546.75;;;15.75;82.83
43707;BME280;61348;53.392;-6.248;2023-07-28T06:37:36;99553.91;;;15.76;82.77
43707;BME280;61348;53.392;-6.248;2023-07-28T06:40:05;99541.94;;;15.79;82.72
43707;BME280;61348;53.392;-6.248;2023-07-28T06:42:33;99547.50;;;15.82;82.41
43707;BME280;61348;53.392;-6.248;2023-07-28T06:45:01;99542.69;;;15.87;82.34
43707;BME280;61348;53.392;-6.248;2023-07-28T06:47:29;99544.25;;;15.91;82.15
43707;BME280;61348;53.392;-6.248;2023-07-28T06:49:56;99535.81;;;15.98;81.74
43707;BME280;61348;53.392;-6.248;2023-07-28T06:52:22;99535.31;;;16.10;81.58
43707;BME280;61348;53.392;-6.248;2023-07-28T06:54:49;99532.44;;;16.21;81.21
43707;BME280;61348;53.392;-6.248;2023-07-28T06:57:16;99537.16;;;16.27;81.07
43707;BME280;61348;53.392;-6.248;2023-07-28T06:59:42;99537.09;;;16.34;80.83
43707;BME280;61348;53.392;-6.248;2023-07-28T07:02:09;99534.31;;;16.34;80.32
43707;BME280;61348;53.392;-6.248;2023-07-28T07:04:37;99527.16;;;16.30;79.71
43707;BME280;61348;53.392;-6.248;2023-07-28T07:07:04;99528.78;;;16.27;79.53
43707;BME280;61348;53.392;-6.248;2023-07-28T07:09:30;99523.19;;;16.27;79.50
43707;BME280;61348;53.392;-6.248;2023-07-28T07:11:57;99527.63;;;16.25;79.32
43707;BME280;61348;53.392;-6.248;2023-07-28T07:14:24;99530.75;;;16.30;79.08
43707;BME280;61348;53.392;-6.248;2023-07-28T07:16:51;99536.66;;;16.39;78.56
43707;BME280;61348;53.392;-6.248;2023-07-28T07:19:17;99533.34;;;16.52;78.61
43707;BME280;61348;53.392;-6.248;2023-07-28T07:21:44;99529.19;;;16.70;78.76
43707;BME280;61348;53.392;-6.248;2023-07-28T07:24:11;99528.16;;;16.91;78.50
43707;BME280;61348;53.392;-6.248;2023-07-28T07:26:40;99526.72;;;17.10;77.53
43707;BME280;61348;53.392;-6.248;2023-07-28T07:29:10;99526.88;;;17.29;77.28
43707;BME280;61348;53.392;-6.248;2023-07-28T07:31:36;99538.19;;;17.49;76.90
43707;BME280;61348;53.392;-6.248;2023-07-28T07:34:04;99535.25;;;17.63;76.26
43707;BME280;61348;53.392;-6.248;2023-07-28T07:36:31;99534.59;;;17.79;76.10
43707;BME280;61348;53.392;-6.248;2023-07-28T07:38:58;99532.38;;;17.93;75.96
43707;BME280;61348;53.392;-6.248;2023-07-28T07:41:25;99542.44;;;18.14;75.20
43707;BME280;61348;53.392;-6.248;2023-07-28T07:43:53;99535.00;;;18.27;74.50
43707;BME280;61348;53.392;-6.248;2023-07-28T07:46:20;99534.03;;;18.37;74.03
43707;BME280;61348;53.392;-6.248;2023-07-28T07:48:47;99538.31;;;18.45;73.78
43707;BME280;61348;53.392;-6.248;2023-07-28T07:51:15;99540.16;;;18.55;73.21
43707;BME280;61348;53.392;-6.248;2023-07-28T07:53:41;99535.19;;;18.63;72.27
43707;BME280;61348;53.392;-6.248;2023-07-28T07:56:09;99532.69;;;18.68;71.81
43707;BME280;61348;53.392;-6.248;2023-07-28T07:58:36;99541.31;;;18.77;71.25
43707;BME280;61348;53.392;-6.248;2023-07-28T08:01:03;99552.91;;;18.79;70.35
43707;BME280;61348;53.392;-6.248;2023-07-28T08:03:31;99540.66;;;18.70;69.90
43707;BME280;61348;53.392;-6.248;2023-07-28T08:06:03;99542.38;;;18.64;69.43
43707;BME280;61348;53.392;-6.248;2023-07-28T08:08:30;99535.50;;;18.68;69.21
43707;BME280;61348;53.392;-6.248;2023-07-28T08:10:57;99528.59;;;18.73;68.82
43707;BME280;61348;53.392;-6.248;2023-07-28T08:13:25;99532.06;;;18.80;67.69
43707;BME280;61348;53.392;-6.248;2023-07-28T08:15:52;99531.56;;;18.85;67.82
43707;BME280;61348;53.392;-6.248;2023-07-28T08:18:19;99534.59;;;18.95;67.61
43707;BME280;61348;53.392;-6.248;2023-07-28T08:20:46;99536.81;;;19.03;66.83
43707;BME280;61348;53.392;-6.248;2023-07-28T08:23:13;99540.28;;;19.11;66.36
43707;BME280;61348;53.392;-6.248;2023-07-28T08:25:39;99541.84;;;19.12;65.62
43707;BME280;61348;53.392;-6.248;2023-07-28T08:28:06;99550.13;;;19.19;65.72
43707;BME280;61348;53.392;-6.248;2023-07-28T08:30:33;99541.91;;;19.28;65.19
43707;BME280;61348;53.392;-6.248;2023-07-28T08:33:01;99536.09;;;19.38;64.44
43707;BME280;61348;53.392;-6.248;2023-07-28T08:35:28;99530.97;;;19.53;64.64
43707;BME280;61348;53.392;-6.248;2023-07-28T08:37:55;99533.72;;;19.73;64.16
43707;BME280;61348;53.392;-6.248;2023-07-28T08:40:22;99538.25;;;20.19;63.18
43707;BME280;61348;53.392;-6.248;2023-07-28T08:42:51;99546.63;;;20.38;62.64
43707;BME280;61348;53.392;-6.248;2023-07-28T08:45:18;99544.31;;;20.33;62.02
43707;BME280;61348;53.392;-6.248;2023-07-28T08:47:45;99544.66;;;20.19;61.40
43707;BME280;61348;53.392;-6.248;2023-07-28T08:50:12;99544.59;;;20.07;61.60
43707;BME280;61348;53.392;-6.248;2023-07-28T08:52:39;99533.50;;;19.99;61.66
43707;BME280;61348;53.392;-6.248;2023-07-28T08:55:09;99537.00;;;19.87;61.78
43707;BME280;61348;53.392;-6.248;2023-07-28T08:57:36;99528.72;;;19.80;61.89
43707;BME280;61348;53.392;-6.248;2023-07-28T09:00:10;99520.69;;;19.82;62.00
43707;BME280;61348;53.392;-6.248;2023-07-28T09:02:41;99518.22;;;19.84;61.98
43707;BME280;61348;53.392;-6.248;2023-07-28T09:05:17;99526.38;;;19.95;62.18
43707;BME280;61348;53.392;-6.248;2023-07-28T09:07:44;99528.16;;;20.05;61.61
43707;BME280;61348;53.392;-6.248;2023-07-28T09:10:11;99529.28;;;20.08;61.26
43707;BME280;61348;53.392;-6.248;2023-07-28T09:12:48;99525.25;;;20.09;61.07
43707;BME280;61348;53.392;-6.248;2023-07-28T09:15:15;99528.06;;;20.09;61.44
43707;BME280;61348;53.392;-6.248;2023-07-28T09:17:46;99541.06;;;20.02;61.18
43707;BME280;61348;53.392;-6.248;2023-07-28T09:20:16;99529.28;;;19.91;61.18
43707;BME280;61348;53.392;-6.248;2023-07-28T09:22:44;99534.72;;;19.82;61.16
43707;BME280;61348;53.392;-6.248;2023-07-28T09:25:15;99522.41;;;19.76;61.50
43707;BME280;61348;53.392;-6.248;2023-07-28T09:27:50;99521.34;;;19.70;61.92
43707;BME280;61348;53.392;-6.248;2023-07-28T09:30:18;99529.09;;;19.82;61.97
43707;BME280;61348;53.392;-6.248;2023-07-28T09:32:50;99521.19;;;20.10;61.24
43707;BME280;61348;53.392;-6.248;2023-07-28T09:35:18;99521.22;;;20.26;60.95
43707;BME280;61348;53.392;-6.248;2023-07-28T09:37:47;99517.72;;;20.38;60.72
43707;BME280;61348;53.392;-6.248;2023-07-28T09:40:20;99529.13;;;20.31;60.97
43707;BME280;61348;53.392;-6.248;2023-07-28T09:42:49;99531.44;;;20.36;60.80
43707;BME280;61348;53.392;-6.248;2023-07-28T09:45:21;99518.22;;;20.49;61.12
43707;BME280;61348;53.392;-6.248;2023-07-28T09:48:05;99519.63;;;20.57;60.48
43707;BME280;61348;53.392;-6.248;2023-07-28T09:50:38;99521.03;;;20.65;60.56
43707;BME280;61348;53.392;-6.248;2023-07-28T09:53:07;99514.00;;;20.57;60.58
43707;BME280;61348;53.392;-6.248;2023-07-28T09:55:34;99530.69;;;20.48;60.87
43707;BME280;61348;53.392;-6.248;2023-07-28T09:58:04;99521.22;;;20.26;60.54
43707;BME280;61348;53.392;-6.248;2023-07-28T10:00:34;99513.16;;;20.12;61.33
43707;BME280;61348;53.392;-6.248;2023-07-28T10:03:02;99517.16;;;20.11;61.48
43707;BME280;61348;53.392;-6.248;2023-07-28T10:05:30;99524.47;;;20.08;61.75
43707;BME280;61348;53.392;-6.248;2023-07-28T10:07:57;99513.75;;;20.03;61.63
43707;BME280;61348;53.392;-6.248;2023-07-28T10:10:25;99514.38;;;20.11;61.70
43707;BME280;61348;53.392;-6.248;2023-07-28T10:12:54;99505.97;;;20.27;61.97
43707;BME280;61348;53.392;-6.248;2023-07-28T10:15:31;99500.66;;;20.74;61.53
43707;BME280;61348;53.392;-6.248;2023-07-28T10:17:59;99510.66;;;21.19;60.70
43707;BME280;61348;53.392;-6.248;2023-07-28T10:20:35;99506.22;;;22.10;59.63
43707;BME280;61348;53.392;-6.248;2023-07-28T10:23:06;99502.81;;;22.96;58.07
43707;BME280;61348;53.392;-6.248;2023-07-28T10:25:36;99502.19;;;23.76;56.42
43707;BME280;61348;53.392;-6.248;2023-07-28T10:28:05;99500.22;;;24.52;55.19
43707;BME280;61348;53.392;-6.248;2023-07-28T10:30:37;99491.44;;;25.05;54.27
43707;BME280;61348;53.392;-6.248;2023-07-28T10:33:05;99485.41;;;25.30;53.29
43707;BME280;61348;53.392;-6.248;2023-07-28T10:35:32;99490.56;;;25.59;52.19
43707;BME280;61348;53.392;-6.248;2023-07-28T10:38:29;99492.28;;;25.65;51.43
43707;BME280;61348;53.392;-6.248;2023-07-28T10:41:17;99489.09;;;25.72;51.65
43707;BME280;61348;53.392;-6.248;2023-07-28T10:43:46;99489.25;;;25.69;50.53
43707;BME280;61348;53.392;-6.248;2023-07-28T10:46:17;99487.88;;;25.55;50.85
43707;BME280;61348;53.392;-6.248;2023-07-28T10:48:46;99477.19;;;25.41;50.55
43707;BME280;61348;53.392;-6.248;2023-07-28T10:51:25;99476.91;;;25.21;50.87
43707;BME280;61348;53.392;-6.248;2023-07-28T10:53:55;99464.69;;;24.97;50.78
43707;BME280;61348;53.392;-6.248;2023-07-28T10:56:23;99470.22;;;24.91;52.17
43707;BME280;61348;53.392;-6.248;2023-07-28T10:59:04;99459.03;;;24.78;53.04
43707;BME280;61348;53.392;-6.248;2023-07-28T11:01:35;99462.16;;;24.62;54.17
43707;BME280;61348;53.392;-6.248;2023-07-28T11:04:14;99446.75;;;24.36;53.59
43707;BME280;61348;53.392;-6.248;2023-07-28T11:06:43;99450.78;;;24.08;51.75
43707;BME280;61348;53.392;-6.248;2023-07-28T11:09:11;99443.84;;;24.00;51.68
43707;BME280;61348;53.392;-6.248;2023-07-28T11:11:39;99438.16;;;23.91;51.46
43707;BME280;61348;53.392;-6.248;2023-07-28T11:16:39;99436.69;;;23.68;51.11
43707;BME280;61348;53.392;-6.248;2023-07-28T11:19:10;99438.72;;;23.58;51.18
43707;BME280;61348;53.392;-6.248;2023-07-28T11:21:38;99425.19;;;23.53;50.76
43707;BME280;61348;53.392;-6.248;2023-07-28T11:24:07;99421.09;;;23.54;50.52
43707;BME280;61348;53.392;-6.248;2023-07-28T11:26:35;99433.47;;;23.48;50.06
43707;BME280;61348;53.392;-6.248;2023-07-28T11:29:04;99423.75;;;23.27;50.26
43707;BME280;61348;53.392;-6.248;2023-07-28T11:31:31;99424.06;;;23.20;50.12
43707;BME280;61348;53.392;-6.248;2023-07-28T11:34:01;99425.75;;;23.18;50.20
43707;BME280;61348;53.392;-6.248;2023-07-28T11:36:29;99417.25;;;23.09;49.92
43707;BME280;61348;53.392;-6.248;2023-07-28T11:38:59;99419.53;;;23.01;50.33
43707;BME280;61348;53.392;-6.248;2023-07-28T11:41:27;99416.09;;;22.97;50.30
43707;BME280;61348;53.392;-6.248;2023-07-28T11:43:54;99411.88;;;23.01;50.62
43707;BME280;61348;53.392;-6.248;2023-07-28T11:46:39;99413.47;;;23.02;50.63
43707;BME280;61348;53.392;-6.248;2023-07-28T11:49:18;99414.19;;;22.94;50.86
43707;BME280;61348;53.392;-6.248;2023-07-28T11:51:49;99415.28;;;22.96;51.42
43707;BME280;61348;53.392;-6.248;2023-07-28T11:54:17;99412.56;;;23.15;51.37
43707;BME280;61348;53.392;-6.248;2023-07-28T11:56:47;99413.41;;;23.24;50.97
43707;BME280;61348;53.392;-6.248;2023-07-28T11:59:17;99420.38;;;23.32;50.75
43707;BME280;61348;53.392;-6.248;2023-07-28T12:04:29;99420.31;;;23.23;50.51
43707;BME280;61348;53.392;-6.248;2023-07-28T12:07:16;99415.38;;;23.15;50.84
43707;BME280;61348;53.392;-6.248;2023-07-28T12:12:23;99413.75;;;23.35;50.42
43707;BME280;61348;53.392;-6.248;2023-07-28T12:14:52;99405.50;;;23.41;50.39
43707;BME280;61348;53.392;-6.248;2023-07-28T12:17:24;99413.53;;;23.42;50.04
43707;BME280;61348;53.392;-6.248;2023-07-28T12:20:15;99416.66;;;23.44;49.96
43707;BME280;61348;53.392;-6.248;2023-07-28T12:22:45;99408.66;;;23.43;49.64
43707;BME280;61348;53.392;-6.248;2023-07-28T12:25:12;99416.34;;;23.42;49.91
43707;BME280;61348;53.392;-6.248;2023-07-28T12:27:39;99418.38;;;23.42;50.48
43707;BME280;61348;53.392;-6.248;2023-07-28T12:30:07;99420.41;;;23.41;50.68
43707;BME280;61348;53.392;-6.248;2023-07-28T12:32:38;99415.50;;;23.63;51.14
43707;BME280;61348;53.392;-6.248;2023-07-28T12:35:26;99414.75;;;23.72;50.73
43707;BME280;61348;53.392;-6.248;2023-07-28T12:38:01;99408.56;;;23.64;50.37
43707;BME280;61348;53.392;-6.248;2023-07-28T12:40:51;99411.38;;;23.64;50.68
43707;BME280;61348;53.392;-6.248;2023-07-28T12:43:21;99408.63;;;23.83;50.62
43707;BME280;61348;53.392;-6.248;2023-07-28T12:45:52;99405.81;;;23.92;50.28
43707;BME280;61348;53.392;-6.248;2023-07-28T12:48:23;99399.38;;;23.91;50.38
43707;BME280;61348;53.392;-6.248;2023-07-28T12:50:50;99401.84;;;23.71;49.88
43707;BME280;61348;53.392;-6.248;2023-07-28T12:53:29;99402.84;;;23.46;49.65
43707;BME280;61348;53.392;-6.248;2023-07-28T12:55:57;99402.88;;;23.25;49.96
43707;BME280;61348;53.392;-6.248;2023-07-28T12:58:26;99407.25;;;23.17;50.29
43707;BME280;61348;53.392;-6.248;2023-07-28T13:00:57;99416.06;;;23.19;50.72
43707;BME280;61348;53.392;-6.248;2023-07-28T13:03:28;99405.59;;;23.28;50.92
43707;BME280;61348;53.392;-6.248;2023-07-28T13:05:55;99405.66;;;23.37;50.47
43707;BME280;61348;53.392;-6.248;2023-07-28T13:08:22;99401.13;;;23.40;50.68
43707;BME280;61348;53.392;-6.248;2023-07-28T13:10:52;99407.22;;;23.38;50.73
43707;BME280;61348;53.392;-6.248;2023-07-28T13:13:21;99403.72;;;23.34;50.69
43707;BME280;61348;53.392;-6.248;2023-07-28T13:15:48;99395.00;;;23.41;50.98
43707;BME280;61348;53.392;-6.248;2023-07-28T13:18:15;99400.06;;;23.55;51.03
43707;BME280;61348;53.392;-6.248;2023-07-28T13:20:41;99399.47;;;23.60;50.87
43707;BME280;61348;53.392;-6.248;2023-07-28T13:23:08;99387.50;;;23.47;50.80
43707;BME280;61348;53.392;-6.248;2023-07-28T13:25:35;99387.94;;;23.46;51.03
43707;BME280;61348;53.392;-6.248;2023-07-28T13:28:02;99390.28;;;23.38;51.14
43707;BME280;61348;53.392;-6.248;2023-07-28T13:30:29;99389.25;;;23.23;50.96
43707;BME280;61348;53.392;-6.248;2023-07-28T13:32:55;99379.78;;;23.17;51.02
43707;BME280;61348;53.392;-6.248;2023-07-28T13:35:23;99379.53;;;23.24;51.05
43707;BME280;61348;53.392;-6.248;2023-07-28T13:37:51;99364.44;;;23.18;50.86
43707;BME280;61348;53.392;-6.248;2023-07-28T13:40:18;99369.19;;;23.30;50.74
43707;BME280;61348;53.392;-6.248;2023-07-28T13:42:45;99374.13;;;23.39;51.07
43707;BME280;61348;53.392;-6.248;2023-07-28T13:45:12;99373.38;;;23.56;51.29
43707;BME280;61348;53.392;-6.248;2023-07-28T13:47:39;99376.28;;;23.75;50.65
43707;BME280;61348;53.392;-6.248;2023-07-28T13:50:06;99370.09;;;23.58;50.33
43707;BME280;61348;53.392;-6.248;2023-07-28T13:52:33;99362.59;;;23.33;50.91
43707;BME280;61348;53.392;-6.248;2023-07-28T13:55:00;99373.50;;;23.13;50.98
43707;BME280;61348;53.392;-6.248;2023-07-28T13:57:33;99360.00;;;23.08;51.70
43707;BME280;61348;53.392;-6.248;2023-07-28T14:00:01;99358.91;;;23.06;51.84
43707;BME280;61348;53.392;-6.248;2023-07-28T14:02:28;99359.31;;;22.95;52.07
43707;BME280;61348;53.392;-6.248;2023-07-28T14:04:55;99355.81;;;22.91;52.07
43707;BME280;61348;53.392;-6.248;2023-07-28T14:07:21;99361.88;;;22.80;51.99
43707;BME280;61348;53.392;-6.248;2023-07-28T14:09:48;99381.13;;;22.73;51.99
43707;BME280;61348;53.392;-6.248;2023-07-28T14:12:15;99366.94;;;22.64;52.29
43707;BME280;61348;53.392;-6.248;2023-07-28T14:14:42;99374.09;;;22.56;51.65
43707;BME280;61348;53.392;-6.248;2023-07-28T14:17:09;99357.41;;;22.49;51.59
43707;BME280;61348;53.392;-6.248;2023-07-28T14:19:38;99366.88;;;22.55;52.11
43707;BME280;61348;53.392;-6.248;2023-07-28T14:22:05;99355.31;;;22.62;52.38
43707;BME280;61348;53.392;-6.248;2023-07-28T14:24:32;99366.75;;;22.58;52.61
43707;BME280;61348;53.392;-6.248;2023-07-28T14:26:59;99367.91;;;22.48;52.60
43707;BME280;61348;53.392;-6.248;2023-07-28T14:29:26;99360.50;;;22.41;52.67
43707;BME280;61348;53.392;-6.248;2023-07-28T14:31:53;99355.72;;;22.51;52.93
43707;BME280;61348;53.392;-6.248;2023-07-28T14:34:20;99359.53;;;22.57;53.87
43707;BME280;61348;53.392;-6.248;2023-07-28T15:12:35;99325.19;;;22.59;53.17
43707;BME280;61348;53.392;-6.248;2023-07-28T15:15:02;99318.13;;;22.32;53.19
43707;BME280;61348;53.392;-6.248;2023-07-28T15:17:29;99325.03;;;22.10;54.10
43707;BME280;61348;53.392;-6.248;2023-07-28T15:19:56;99319.09;;;21.95;53.91
43707;BME280;61348;53.392;-6.248;2023-07-28T15:22:23;99317.88;;;21.83;54.16
43707;BME280;61348;53.392;-6.248;2023-07-28T15:24:50;99311.22;;;21.90;54.90
43707;BME280;61348;53.392;-6.248;2023-07-28T15:27:17;99317.53;;;21.94;55.00
43707;BME280;61348;53.392;-6.248;2023-07-28T15:29:44;99302.38;;;22.01;54.70
43707;BME280;61348;53.392;-6.248;2023-07-28T15:32:12;99306.91;;;21.98;54.96
43707;BME280;61348;53.392;-6.248;2023-07-28T15:34:38;99305.25;;;21.88;55.14
43707;BME280;61348;53.392;-6.248;2023-07-28T15:37:05;99291.41;;;21.81;55.75
43707;BME280;61348;53.392;-6.248;2023-07-28T15:39:32;99296.50;;;21.73;55.61
43707;BME280;61348;53.392;-6.248;2023-07-28T15:42:00;99296.16;;;21.71;55.83
43707;BME280;61348;53.392;-6.248;2023-07-28T15:44:26;99298.44;;;21.64;55.54
43707;BME280;61348;53.392;-6.248;2023-07-28T15:46:53;99295.38;;;21.71;55.83
43707;BME280;61348;53.392;-6.248;2023-07-28T15:49:20;99296.13;;;21.84;55.16
43707;BME280;61348;53.392;-6.248;2023-07-28T15:51:47;99303.66;;;22.00;54.96
43707;BME280;61348;53.392;-6.248;2023-07-28T15:54:14;99294.22;;;22.15;54.88
43707;BME280;61348;53.392;-6.248;2023-07-28T15:56:43;99288.81;;;22.30;54.25
43707;BME280;61348;53.392;-6.248;2023-07-28T15:59:11;99294.97;;;22.37;54.39
43707;BME280;61348;53.392;-6.248;2023-07-28T16:01:38;99290.31;;;22.43;54.07
43707;BME280;61348;53.392;-6.248;2023-07-28T16:04:05;99279.38;;;22.45;53.84
43707;BME280;61348;53.392;-6.248;2023-07-28T16:06:35;99293.34;;;22.49;53.67
43707;BME280;61348;53.392;-6.248;2023-07-28T16:09:03;99292.34;;;22.43;53.18
43707;BME280;61348;53.392;-6.248;2023-07-28T16:11:34;99299.06;;;22.36;52.55
43707;BME280;61348;53.392;-6.248;2023-07-28T16:14:01;99295.38;;;22.27;52.56
43707;BME280;61348;53.392;-6.248;2023-07-28T16:16:28;99290.47;;;22.18;52.57
43707;BME280;61348;53.392;-6.248;2023-07-28T16:18:55;99294.34;;;22.12;52.16
43707;BME280;61348;53.392;-6.248;2023-07-28T16:21:21;99280.72;;;22.10;52.90
43707;BME280;61348;53.392;-6.248;2023-07-28T16:23:48;99289.94;;;22.11;52.78
43707;BME280;61348;53.392;-6.248;2023-07-28T16:26:15;99286.47;;;22.07;52.80
43707;BME280;61348;53.392;-6.248;2023-07-28T16:28:43;99283.84;;;21.91;52.42
43707;BME280;61348;53.392;-6.248;2023-07-28T16:31:10;99277.53;;;21.74;52.07
43707;BME280;61348;53.392;-6.248;2023-07-28T16:33:36;99274.41;;;21.72;52.10
43707;BME280;61348;53.392;-6.248;2023-07-28T16:36:09;99283.53;;;21.76;52.05
43707;BME280;61348;53.392;-6.248;2023-07-28T16:38:39;99279.66;;;21.82;52.16
43707;BME280;61348;53.392;-6.248;2023-07-28T16:41:07;99288.81;;;21.87;52.72